Latest Weather Observations for Mount Read

IDT60801

Issued at 5:05 pm EST Thursday 31 July 2014 (issued every 30 minutes, with the page automatically refreshed every 10 minutes)

About weather observations | Map of weather stations | Latest weather observations for TAS | Other Formats
Station Details ID: 097085 Name: MOUNT READ Lat: -41.84 Lon: 145.54 Height: 1119.5 m
Data from the previous 72 hours. | See also: Recent months at Mount Read
Date/Time
EST
Temp
°C
App
Temp
°C
Dew
Point
Rel
Hum
%
Delta-T
°C
Wind Press
QNH
hPa
Press
MSL
hPa
Rain
since 9 am
mm
Dir
 
Spd
km/h
Gust
km/h
Spd
kts
Gust
kts
31/05:00pm -0.6 -9.0 -0.7 99 0.0 NW 33 67 18 36 980.6 982.0 14.2
31/04:30pm -0.5 -9.6 -0.6 99 0.0 NW 37 67 20 36 981.3 - 14.2
31/04:19pm -0.1 -10.3 -0.2 99 0.0 NW 43 74 23 40 980.8 - 14.2
31/04:00pm -0.1 -10.3 -0.2 99 0.0 N 43 87 23 47 980.1 981.4 14.2
31/03:46pm 0.0 -9.4 -0.1 99 0.0 NNW 39 87 21 47 979.9 - 14.2
31/03:45pm 0.0 -8.1 -0.1 99 0.0 NNW 32 46 17 25 980.4 - 14.2
31/03:30pm -0.1 -12.8 -0.2 99 0.0 NNW 56 87 30 47 980.3 - 14.0
31/03:29pm -0.1 -12.9 -0.2 99 0.0 NNW 57 87 31 47 980.1 - 14.0
31/03:25pm -0.2 -9.3 -0.3 99 0.0 NNW 37 74 20 40 980.0 - 14.0
31/03:19pm -0.1 -8.4 -0.2 99 0.0 NNW 33 54 18 29 979.9 - 14.0
31/03:00pm -0.3 -8.6 -0.4 99 0.0 NNW 33 48 18 26 980.1 981.4 14.0
31/02:39pm -0.3 -8.6 -0.4 99 0.0 NNW 33 52 18 28 980.6 - 14.0
31/02:30pm -0.3 -8.4 -0.4 99 0.0 NNW 32 48 17 26 981.0 - 14.0
31/02:08pm -0.3 -8.0 -0.4 99 0.0 NNW 30 50 16 27 981.3 - 13.8
31/02:00pm -0.4 -8.5 -0.5 99 0.0 NW 32 48 17 26 981.4 982.8 13.8
31/01:30pm -0.4 -5.7 -0.5 99 0.0 SW 17 32 9 17 982.9 - 13.6
31/01:00pm 0.0 -6.2 -0.1 99 0.0 SW 22 28 12 15 981.5 982.9 13.6
31/12:30pm -0.2 -7.2 -0.3 99 0.0 SW 26 30 14 16 982.1 - 13.4
31/12:00pm 0.8 -7.7 0.7 99 0.0 WNW 35 50 19 27 982.2 983.6 13.2
31/11:30am 1.8 -8.1 1.7 99 0.0 W 43 56 23 30 981.9 - 11.6
31/11:19am 3.4 -5.8 3.3 99 0.0 WNW 41 63 22 34 981.9 - 11.0
31/11:18am 3.8 -4.6 3.7 99 0.0 NW 37 56 20 30 982.1 - 10.8
31/11:00am 3.8 -9.5 3.7 99 0.0 NNW 63 111 34 60 980.6 982.0 9.2
31/10:59am 4.2 -8.3 4.1 99 0.0 NNW 59 111 32 60 980.6 - 9.2
31/10:56am 4.3 -6.9 4.2 99 0.0 NNW 52 74 28 40 981.1 - 9.0
31/10:47am 4.4 -11.7 4.3 99 0.0 NNW 78 98 42 53 980.2 - 8.4
31/10:34am 4.3 -7.8 4.2 99 0.0 NNW 57 109 31 59 980.8 - 7.4
31/10:30am 4.3 -7.2 4.2 99 0.0 NNW 54 85 29 46 981.4 - 7.0
31/10:00am 3.8 -8.8 3.7 99 0.0 NNW 59 98 32 53 982.0 983.4 2.4
31/09:48am 3.6 -8.4 3.5 99 0.0 NNW 56 93 30 50 982.3 - 2.0
31/09:30am 3.0 -8.0 2.9 99 0.0 NNW 50 74 27 40 983.7 - 1.8
31/09:00am 3.1 -6.2 3.0 99 0.0 NNW 41 69 22 37 984.7 986.1 64.2
31/08:30am 3.0 -7.3 2.9 99 0.0 NNW 46 72 25 39 985.0 - 61.4
31/08:22am 2.9 -6.0 2.8 99 0.0 NNW 39 72 21 39 985.1 - 60.8
31/08:00am 3.0 -3.8 2.9 99 0.0 NW 28 48 15 26 986.0 987.5 60.0
31/07:30am 3.2 -5.7 3.1 99 0.0 NW 39 67 21 36 986.7 - 58.0
31/07:00am 3.2 -5.3 3.1 99 0.0 NNW 37 65 20 35 987.3 988.9 53.6
31/06:49am 3.5 -6.7 3.4 99 0.0 NNW 46 67 25 36 987.1 - 51.4
31/06:48am 3.5 -7.4 3.4 99 0.0 NNW 50 67 27 36 987.1 - 51.4
31/06:33am 3.3 -4.2 3.2 99 0.0 NW 32 78 17 42 987.6 - 50.8
31/06:31am 3.1 -3.7 3.0 99 0.0 NW 28 50 15 27 987.7 - 50.8
31/06:30am 3.1 -3.3 3.0 99 0.0 NW 26 44 14 24 987.9 - 50.8
31/06:00am 3.3 -4.8 3.2 99 0.0 WNW 35 59 19 32 988.5 990.0 49.0
31/05:30am 3.8 -4.6 3.7 99 0.0 WNW 37 63 20 34 988.7 - 47.2
31/05:21am 3.8 -7.1 3.7 99 0.0 NW 50 72 27 39 988.2 - 45.8
31/05:20am 3.7 -8.3 3.6 99 0.0 WNW 56 72 30 39 987.8 - 45.6
31/05:00am 4.1 -2.9 4.0 99 0.0 NW 30 63 16 34 988.3 989.9 43.4
31/04:59am 4.1 -2.5 4.0 99 0.0 NNW 28 63 15 34 988.3 - 43.4
31/04:55am 4.2 -0.9 4.1 99 0.0 NNW 20 37 11 20 988.3 - 43.2
31/04:44am 4.1 -7.9 4.0 99 0.0 NNW 56 80 30 43 988.0 - 42.6
31/04:36am 4.0 -3.6 3.9 99 0.0 NNW 33 67 18 36 989.1 - 42.4
31/04:30am 4.0 -2.7 3.9 99 0.0 NNW 28 48 15 26 989.6 - 42.4
31/04:08am 3.8 -3.7 3.7 99 0.0 NW 32 56 17 30 989.7 - 40.8
31/04:00am 4.3 -10.1 4.2 99 0.0 WNW 69 95 37 51 989.3 990.9 39.2
31/03:57am 4.3 -4.8 4.2 99 0.0 NW 41 78 22 42 989.3 - 38.8
31/03:52am 4.8 -3.0 4.7 99 0.0 NW 35 57 19 31 989.8 - 37.8
31/03:49am 4.8 -7.2 4.7 99 0.0 N 57 80 31 43 989.2 - 36.8
31/03:40am 4.6 -11.8 4.5 99 0.0 NNW 80 117 43 63 987.8 - 36.6
31/03:35am 4.6 -7.8 4.5 99 0.0 NNW 59 87 32 47 988.3 - 36.4
31/03:30am 4.7 -11.7 4.6 99 0.0 NNW 80 132 43 71 987.7 - 36.4
31/03:25am 4.8 -10.8 4.7 99 0.0 NNW 76 132 41 71 987.8 - 36.4
31/03:00am 4.9 -9.4 4.8 99 0.0 NNW 69 107 37 58 989.1 990.7 35.8
31/02:55am 5.0 -9.3 4.9 99 0.0 NNW 69 107 37 58 989.2 - 35.8
31/02:36am 4.8 -5.1 4.7 99 0.0 NNW 46 93 25 50 989.9 - 34.0
31/02:34am 4.8 -12.2 4.7 99 0.0 NW 83 111 45 60 989.6 - 34.0
31/02:30am 4.8 -4.7 4.7 99 0.0 NW 44 102 24 55 990.2 - 34.0
31/02:10am 4.8 -7.2 4.7 99 0.0 WNW 57 96 31 52 990.3 - 33.4
31/02:00am 4.8 -4.6 4.7 99 0.0 NNW 43 113 23 61 990.7 992.3 33.2
31/01:54am 4.9 -4.4 4.8 99 0.0 NNW 43 113 23 61 990.8 - 33.2
31/01:30am 4.8 -5.9 4.7 99 0.0 NW 50 93 27 50 991.4 - 32.6
31/01:00am 4.9 -6.1 4.8 99 0.0 NNW 52 109 28 59 991.0 992.7 32.6
31/12:48am 5.1 -4.8 5.0 99 0.0 NW 46 122 25 66 991.2 - 32.4
31/12:45am 5.2 -4.3 5.1 99 0.0 NW 44 89 24 48 991.6 - 32.4
31/12:44am 5.1 -2.3 5.0 99 0.0 NNW 33 61 18 33 991.7 - 32.4
31/12:30am 5.1 -6.9 5.0 99 0.0 NNW 57 106 31 57 990.8 - 32.2
31/12:03am 5.0 -9.4 4.9 99 0.0 NNW 70 100 38 54 991.1 - 31.8
31/12:00am 5.1 -5.9 5.0 99 0.0 NNW 52 95 28 51 991.5 993.1 31.8
 
Date/Time
EST
Temp
°C
App
Temp
°C
Dew
Point
Rel
Hum
%
Delta-T
°C
Wind Press
QNH
hPa
Press
MSL
hPa
Rain
since 9 am
mm
Dir
 
Spd
km/h
Gust
km/h
Spd
kts
Gust
kts
30/11:30pm 4.8 -5.5 4.7 99 0.0 NNW 48 130 26 70 992.8 - 31.4
30/11:27pm 4.8 -5.1 4.7 99 0.0 NNW 46 130 25 70 992.1 - 31.4
30/11:00pm 4.6 -5.7 4.5 99 0.0 NNW 48 91 26 49 993.4 995.1 31.4
30/10:30pm 4.5 -6.6 4.4 99 0.0 NNW 52 98 28 53 993.8 - 31.2
30/10:00pm 4.2 -8.3 4.1 99 0.0 NNW 59 109 32 59 992.9 994.6 31.0
30/09:30pm 4.0 -9.7 3.9 99 0.0 NNW 65 104 35 56 993.7 - 30.6
30/09:28pm 4.0 -9.7 3.9 99 0.0 NNW 65 87 35 47 994.3 - 30.6
30/09:27pm 4.0 -10.4 3.9 99 0.0 N 69 87 37 47 994.0 - 30.6
30/09:00pm 4.1 -6.3 4.0 99 0.0 N 48 83 26 45 994.9 996.7 30.6
30/08:30pm 4.5 -4.5 4.4 99 0.0 NNW 41 89 22 48 994.6 - 30.2
30/08:26pm 4.5 -4.1 4.4 99 0.0 NNW 39 89 21 48 994.7 - 30.2
30/08:25pm 4.5 -2.4 4.4 99 0.0 NNW 30 65 16 35 995.3 - 30.2
30/08:23pm 4.5 -4.9 4.4 99 0.0 N 43 76 23 41 994.7 - 30.2
30/08:19pm 4.4 -7.1 4.3 99 0.0 NW 54 82 29 44 994.9 - 30.2
30/08:13pm 4.5 -7.9 4.4 99 0.0 N 59 89 32 48 994.5 - 30.2
30/08:10pm 4.5 -3.8 4.4 99 0.0 NNW 37 65 20 35 995.0 - 30.2
30/08:00pm 4.5 -8.7 4.4 99 0.0 NNW 63 87 34 47 994.9 996.7 30.2
30/07:53pm 4.4 -3.5 4.3 99 0.0 NNW 35 74 19 40 995.3 - 30.2
30/07:52pm 4.5 -2.1 4.4 99 0.0 NNW 28 50 15 27 995.6 - 30.2
30/07:30pm 4.5 -7.9 4.4 99 0.0 NNW 59 95 32 51 995.0 - 30.2
30/07:10pm 4.6 -9.0 4.5 99 0.0 N 65 96 35 52 994.6 - 30.2
30/07:08pm 4.7 -4.7 4.6 99 0.0 NNW 43 69 23 37 995.5 - 30.2
30/07:04pm 4.6 -9.7 4.5 99 0.0 NNW 69 107 37 58 994.8 - 30.2
30/07:00pm 4.8 -5.5 4.7 99 0.0 NNW 48 93 26 50 995.0 996.8 30.2
30/06:44pm 5.0 -4.5 4.9 99 0.0 NNW 44 89 24 48 995.0 - 30.0
30/06:34pm 4.9 -2.5 4.8 99 0.0 NNW 33 70 18 38 995.3 - 30.0
30/06:30pm 4.9 -7.5 4.8 99 0.0 NNW 59 109 32 59 995.0 - 30.0
30/06:07pm 4.9 -7.9 4.8 99 0.0 NNW 61 96 33 52 995.4 - 29.6
30/06:00pm 4.8 -5.9 4.7 99 0.0 NNW 50 78 27 42 995.4 997.1 29.2
30/05:30pm 4.8 -5.1 4.7 99 0.0 NW 46 85 25 46 996.3 - 28.2
30/05:19pm 4.8 -6.6 4.7 99 0.0 NW 54 96 29 52 995.8 - 28.2
30/05:05pm 4.8 -1.7 4.7 99 0.0 NW 28 65 15 35 996.0 - 28.0
30/05:00pm 4.7 -8.5 4.6 99 0.0 NW 63 107 34 58 995.6 997.4 28.0
30/04:57pm 4.7 -8.9 4.6 99 0.0 NW 65 100 35 54 995.7 - 28.0
30/04:36pm 4.7 -3.9 4.6 99 0.0 NW 39 85 21 46 996.7 - 26.8
30/04:30pm 4.5 -8.3 4.4 99 0.0 WNW 61 102 33 55 995.9 - 25.8
30/04:10pm 4.5 -9.1 4.4 99 0.0 WNW 65 119 35 64 995.5 - 25.8
30/04:08pm 4.4 -7.1 4.3 99 0.0 WNW 54 72 29 39 996.5 - 25.8
30/04:03pm 4.5 -12.3 4.4 99 0.0 WNW 82 122 44 66 995.4 - 25.8
30/04:00pm 4.7 -7.3 4.6 99 0.0 WNW 57 109 31 59 995.9 997.7 25.6
30/03:59pm 4.7 -9.6 4.6 99 0.0 WNW 69 109 37 59 995.1 - 25.6
30/03:58pm 4.7 -4.9 4.6 99 0.0 NW 44 109 24 59 995.6 - 25.6
30/03:53pm 4.8 -4.2 4.7 99 0.0 WNW 41 82 22 44 995.6 - 25.6
30/03:40pm 4.8 -7.6 4.7 99 0.0 NW 59 82 32 44 995.5 - 24.8
30/03:39pm 4.8 -3.0 4.7 99 0.0 WNW 35 82 19 44 996.0 - 24.6
30/03:38pm 4.9 -1.2 4.8 99 0.0 WNW 26 46 14 25 996.4 - 24.4
30/03:33pm 4.3 -9.3 4.2 99 0.0 WNW 65 87 35 47 995.6 - 22.2
30/03:30pm 5.0 -4.3 4.9 99 0.0 NW 43 89 23 48 995.8 - 21.0
30/03:17pm 4.9 -4.6 4.8 99 0.0 NNW 44 89 24 48 995.6 - 18.2
30/03:10pm 4.9 -3.3 4.8 99 0.0 NNW 37 61 20 33 995.7 - 16.8
30/03:00pm 4.8 -5.1 4.7 99 0.0 NW 46 83 25 45 996.3 998.1 16.6
30/02:56pm 4.8 -7.6 4.7 99 0.0 NW 59 83 32 45 996.0 - 16.6
30/02:30pm 4.9 -3.3 4.8 99 0.0 NNW 37 83 20 45 995.8 - 14.4
30/02:05pm 4.7 -5.6 4.6 99 0.0 NW 48 93 26 50 996.0 - 11.4
30/02:02pm 4.8 -5.1 4.7 99 0.0 NW 46 72 25 39 996.3 - 11.2
30/02:00pm 4.7 -9.6 4.6 99 0.0 WNW 69 107 37 58 995.6 997.4 11.0
30/01:59pm 4.9 -4.1 4.8 99 0.0 NW 41 93 22 50 996.3 - 10.8
30/01:57pm 5.0 -3.6 4.9 99 0.0 NW 39 63 21 34 996.4 - 10.6
30/01:56pm 5.0 -2.8 4.9 99 0.0 NNW 35 50 19 27 996.5 - 10.4
30/01:54pm 4.9 -7.9 4.8 99 0.0 WNW 61 87 33 47 996.0 - 10.4
30/01:30pm 4.5 -4.1 4.4 99 0.0 NNW 39 78 21 42 996.6 - 9.4
30/01:00pm 4.2 -6.2 4.1 99 0.0 NW 48 96 26 52 997.0 998.9 8.8
30/12:45pm 4.3 -5.3 4.2 99 0.0 WNW 44 83 24 45 997.8 - 8.2
30/12:42pm 4.3 -3.2 4.2 99 0.0 NNW 33 69 18 37 997.7 - 8.2
30/12:30pm 4.3 -8.2 4.2 99 0.0 NW 59 98 32 53 997.3 - 7.2
30/12:29pm 4.3 -8.6 4.2 99 0.0 NW 61 87 33 47 997.3 - 7.2
30/12:26pm 4.3 -3.1 4.2 99 0.0 NNW 32 59 17 32 997.4 - 6.8
30/12:25pm 4.3 -2.3 4.2 99 0.0 NNW 28 44 15 24 997.5 - 6.8
30/12:14pm 4.3 -6.5 4.2 99 0.0 NW 50 72 27 39 997.7 - 6.6
30/12:10pm 4.2 -3.7 4.1 99 0.0 NNW 35 63 19 34 997.7 - 6.6
30/12:00pm 4.2 -6.2 4.1 99 0.0 WNW 48 104 26 56 997.5 999.3 6.4
30/11:58am 4.1 -5.4 4.0 99 0.0 WNW 43 95 23 51 997.8 - 6.4
30/11:56am 4.1 -4.2 4.0 99 0.0 NW 37 63 20 34 998.2 - 6.4
30/11:51am 4.0 -10.1 3.9 99 0.0 WNW 67 95 36 51 997.3 - 6.4
30/11:47am 4.0 -4.7 3.9 99 0.0 NW 39 87 21 47 997.8 - 6.4
30/11:45am 4.0 -5.1 3.9 99 0.0 NW 41 63 22 34 997.7 - 6.4
30/11:44am 4.0 -5.1 3.9 99 0.0 NW 41 57 22 31 997.8 - 6.4
30/11:41am 4.0 -10.6 3.9 99 0.0 WNW 70 115 38 62 997.3 - 6.4
30/11:35am 4.0 -5.1 3.9 99 0.0 NNW 41 96 22 52 997.8 - 6.2
30/11:30am 4.0 -5.1 3.9 99 0.0 NNW 41 76 22 41 997.8 - 5.8
30/11:06am 4.0 -4.7 3.9 99 0.0 NNW 39 80 21 43 998.4 - 4.4
30/11:04am 4.0 -3.0 3.9 99 0.0 NNW 30 50 16 27 998.7 - 4.2
30/11:00am 4.0 -8.0 3.9 99 0.0 NNW 56 98 30 53 998.2 1000.0 4.2
30/10:35am 3.9 -6.2 3.8 99 0.0 NW 46 89 25 48 998.8 - 4.0
30/10:34am 4.0 -4.4 3.9 99 0.0 NNW 37 65 20 35 998.9 - 4.0
30/10:32am 4.0 -11.8 3.9 99 0.0 NW 76 109 41 59 998.3 - 4.0
30/10:30am 4.0 -7.2 3.9 99 0.0 NW 52 91 28 49 998.7 - 4.0
30/10:24am 3.9 -4.1 3.8 99 0.0 NNW 35 69 19 37 998.9 - 3.6
30/10:23am 4.0 -3.4 3.9 99 0.0 NNW 32 48 17 26 998.7 - 3.4
30/10:17am 3.9 -8.3 3.8 99 0.0 NW 57 83 31 45 998.7 - 3.0
30/10:02am 3.9 -3.5 3.8 99 0.0 NW 32 69 17 37 999.0 - 2.8
30/10:00am 3.9 -2.8 3.8 99 0.0 NW 28 46 15 25 999.2 1001.0 2.6
30/09:51am 3.9 -6.6 3.8 99 0.0 WNW 48 72 26 39 998.7 - 1.8
30/09:37am 3.6 -5.2 3.5 99 0.0 NNW 39 85 21 46 998.7 - 1.2
30/09:35am 3.6 -3.5 3.5 99 0.0 NNW 30 67 16 36 999.3 - 1.0
30/09:34am 3.5 -2.5 3.4 99 0.0 NNW 24 61 13 33 999.2 - 1.0
30/09:30am 3.4 -7.9 3.3 99 0.0 WNW 52 87 28 47 998.9 - 0.6
30/09:00am 3.1 -7.5 3.0 99 0.0 WNW 48 89 26 48 998.7 1000.6 54.8
30/08:59am 3.1 -7.5 3.0 99 0.0 WNW 48 89 26 48 998.7 - 54.8
30/08:58am 3.2 -5.3 3.1 99 0.0 WNW 37 65 20 35 999.2 - 54.8
30/08:56am 3.1 -12.1 3.0 99 0.0 WNW 72 100 39 54 997.9 - 54.6
30/08:55am 3.2 -8.2 3.1 99 0.0 WNW 52 100 28 54 998.6 - 54.6
30/08:30am 3.1 -8.3 3.0 99 0.0 WNW 52 76 28 41 998.5 - 53.0
30/08:19am 3.1 -7.5 3.0 99 0.0 NW 48 111 26 60 998.6 - 52.8
30/08:05am 3.1 -9.2 3.0 99 0.0 WNW 57 82 31 44 998.5 - 52.4
30/08:04am 3.1 -10.4 3.0 99 0.0 WNW 63 82 34 44 998.4 - 52.4
30/08:00am 3.0 -5.9 2.9 99 0.0 NW 39 83 21 45 998.5 1000.3 52.4
30/07:44am 3.0 -5.9 2.9 99 0.0 NW 39 78 21 42 998.4 - 51.6
30/07:39am 3.0 -5.5 2.9 99 0.0 NW 37 56 20 30 998.2 - 51.0
30/07:38am 3.0 -5.2 2.9 99 0.0 NNW 35 52 19 28 998.2 - 51.0
30/07:35am 3.0 -9.3 2.9 99 0.0 NW 57 87 31 47 997.9 - 50.6
30/07:30am 2.8 -5.4 2.7 99 0.0 NNW 35 67 19 36 997.9 - 50.0
30/07:04am 2.8 -4.1 2.7 99 0.0 NNW 28 57 15 31 998.4 - 49.2
30/07:00am 2.8 -2.9 2.7 99 0.0 NNW 22 41 12 22 998.3 1000.1 49.0
30/06:30am 2.5 -7.5 2.4 99 0.0 WNW 44 80 24 43 998.4 - 49.0
30/06:07am 2.4 -8.0 2.3 99 0.0 WNW 46 85 25 46 997.7 - 48.8
30/06:00am 2.3 -6.0 2.2 99 0.0 NW 35 65 19 35 998.2 1000.0 48.8
30/05:30am 2.0 -8.4 1.9 99 0.0 WNW 46 78 25 42 998.0 - 48.2
30/05:12am 1.7 -8.4 1.6 99 0.0 WNW 44 69 24 37 997.9 - 47.4
30/05:00am 1.4 -8.2 1.3 99 0.0 WNW 41 56 22 30 998.5 1000.3 47.2
30/04:32am 1.2 -8.4 1.1 99 0.0 WNW 41 63 22 34 998.4 - 47.2
30/04:30am 1.2 -8.0 1.1 99 0.0 WNW 39 56 21 30 998.5 - 47.2
30/04:00am 1.5 -10.5 1.4 99 0.0 WNW 54 76 29 41 998.0 999.9 47.0
30/03:30am 1.6 -10.0 1.5 99 0.0 W 52 80 28 43 998.0 - 46.8
30/03:00am 1.7 -9.2 1.6 99 0.0 W 48 80 26 43 998.4 1000.2 46.8
30/02:30am 1.3 -11.7 1.2 99 0.0 W 59 91 32 49 997.7 - 46.8
30/02:00am 1.8 -11.1 1.7 99 0.0 W 59 95 32 51 997.0 998.9 46.8
30/01:30am 1.9 -10.4 1.8 99 0.0 W 56 80 30 43 996.5 - 46.8
30/01:00am 1.9 -11.0 1.8 99 0.0 W 59 96 32 52 995.7 997.5 46.8
30/12:30am 2.2 -12.2 2.1 99 0.0 W 67 115 36 62 995.5 - 46.8
30/12:25am 2.0 -11.7 1.9 99 0.0 W 63 115 34 62 994.7 - 46.6
30/12:00am 1.9 -10.1 1.8 99 0.0 W 54 82 29 44 995.1 996.9 46.6
 
Date/Time
EST
Temp
°C
App
Temp
°C
Dew
Point
Rel
Hum
%
Delta-T
°C
Wind Press
QNH
hPa
Press
MSL
hPa
Rain
since 9 am
mm
Dir
 
Spd
km/h
Gust
km/h
Spd
kts
Gust
kts
29/11:59pm 1.9 -9.3 1.8 99 0.0 W 50 70 27 38 995.3 - 46.6
29/11:51pm 1.8 -14.4 1.7 99 0.0 W 76 100 41 54 994.4 - 46.6
29/11:38pm 1.8 -9.0 1.7 99 0.0 WNW 48 91 26 49 994.6 - 46.6
29/11:37pm 1.8 -8.1 1.7 99 0.0 WNW 43 67 23 36 994.9 - 46.6
29/11:30pm 1.9 -13.5 1.8 99 0.0 WNW 72 111 39 60 994.7 - 46.6
29/11:00pm 2.1 -12.7 2.0 99 0.0 W 69 107 37 58 993.5 995.2 46.0
29/10:30pm 2.2 -11.4 2.1 99 0.0 WNW 63 102 34 55 993.5 - 45.8
29/10:00pm 1.9 -12.5 1.8 99 0.0 W 67 109 36 59 992.8 994.5 45.2
29/09:30pm 2.5 -12.8 2.4 99 0.0 WNW 72 102 39 55 992.5 - 42.8
29/09:00pm 2.7 -11.6 2.6 99 0.0 WNW 67 98 36 53 992.6 994.3 42.6
29/08:53pm 2.4 -11.6 2.3 99 0.0 WNW 65 89 35 48 992.5 - 42.6
29/08:43pm 2.4 -15.8 2.3 99 0.0 WNW 87 119 47 64 991.1 - 42.2
29/08:30pm 2.6 -11.0 2.5 99 0.0 WNW 63 102 34 55 991.2 - 42.0
29/08:00pm 3.0 -11.6 2.9 99 0.0 WNW 69 106 37 57 991.6 993.2 42.0
29/07:30pm 2.8 -10.3 2.7 99 0.0 WNW 61 115 33 62 992.1 - 41.8
29/07:25pm 2.5 -12.2 2.4 99 0.0 WNW 69 115 37 62 990.7 - 41.8
29/07:00pm 3.3 -9.8 3.2 99 0.0 WNW 61 89 33 48 991.7 993.4 41.8
29/06:35pm 3.0 -10.9 2.9 99 0.0 WNW 65 115 35 62 990.8 - 41.8
29/06:30pm 2.9 -10.2 2.8 99 0.0 WNW 61 93 33 50 990.6 - 41.8
29/06:11pm 2.3 -13.8 2.2 99 0.0 WNW 76 117 41 63 990.0 - 41.8
29/06:04pm 1.6 -13.3 1.5 99 0.0 WNW 69 98 37 53 990.2 - 41.8
29/06:00pm 1.4 -18.6 1.3 99 0.0 W 96 132 52 71 989.7 991.3 41.8
29/05:56pm 1.4 -20.5 1.3 99 0.0 W 106 132 57 71 988.5 - 41.8
29/05:46pm 3.7 -13.5 3.6 99 0.0 WNW 83 132 45 71 989.8 - 41.4
29/05:30pm 3.8 -13.7 3.7 99 0.0 WNW 85 146 46 79 987.8 - 40.0
29/05:10pm 4.4 -14.9 4.3 99 0.0 WNW 95 148 51 80 988.2 - 39.8
29/05:08pm 4.4 -10.0 4.3 99 0.0 WNW 69 130 37 70 988.6 - 39.8
29/05:04pm 4.8 -7.6 4.7 99 0.0 WNW 59 107 32 58 988.8 - 38.6
29/05:00pm 4.6 -15.2 4.5 99 0.0 WNW 98 128 53 69 986.8 988.3 36.2
29/04:56pm 4.7 -14.6 4.6 99 0.0 WNW 95 124 51 67 987.0 - 35.8
29/04:47pm 4.9 -8.6 4.8 99 0.0 WNW 65 107 35 58 988.5 - 35.4
29/04:46pm 5.0 -7.7 4.9 99 0.0 WNW 61 82 33 44 988.9 - 35.4
29/04:44pm 5.0 -12.3 4.9 99 0.0 WNW 85 115 46 62 988.6 - 35.2
29/04:30pm 4.9 -7.9 4.8 99 0.0 WNW 61 113 33 61 988.5 - 31.6
29/04:23pm 5.0 -8.5 4.9 99 0.0 WNW 65 113 35 61 988.8 - 30.8
29/04:20pm 4.9 -3.7 4.8 99 0.0 NW 39 70 21 38 988.8 - 30.8
29/04:09pm 5.1 -7.6 5.0 99 0.0 NW 61 113 33 61 988.0 - 30.2
29/04:05pm 5.1 -6.9 5.0 99 0.0 NW 57 95 31 51 988.0 - 30.0
29/04:00pm 5.1 -3.1 5.0 99 0.0 NNW 37 82 20 44 988.8 990.4 28.6
29/03:59pm 5.1 -2.7 5.0 99 0.0 N 35 67 19 36 988.5 - 28.6
29/03:56pm 5.1 -7.2 5.0 99 0.0 WNW 59 109 32 59 988.2 - 28.4
29/03:39pm 5.2 -5.8 5.1 99 0.0 NNW 52 117 28 63 988.2 - 27.2
29/03:36pm 5.2 -5.0 5.1 99 0.0 NNW 48 93 26 50 988.6 - 27.0
29/03:30pm 5.2 -10.0 5.1 99 0.0 WNW 74 124 40 67 988.7 - 25.8
29/03:17pm 5.2 -8.6 5.1 99 0.0 NW 67 120 36 65 988.7 - 25.4
29/03:10pm 5.1 -10.5 5.0 99 0.0 WNW 76 102 41 55 988.5 - 24.8
29/03:08pm 5.1 -5.5 5.0 99 0.0 WNW 50 78 27 42 989.5 - 24.6
29/03:05pm 5.2 -9.6 5.1 99 0.0 WNW 72 102 39 55 989.1 - 24.4
29/03:00pm 5.2 -4.3 5.1 99 0.0 NNW 44 87 24 47 988.9 990.5 23.2
29/02:42pm 5.0 -4.3 4.9 99 0.0 NW 43 87 23 47 988.7 - 21.0
29/02:38pm 4.9 -3.3 4.8 99 0.0 NW 37 61 20 33 989.0 - 21.0
29/02:35pm 4.9 -9.4 4.8 99 0.0 NW 69 100 37 54 988.9 - 21.0
29/02:34pm 4.9 -4.1 4.8 99 0.0 NNW 41 100 22 54 988.9 - 21.0
29/02:30pm 4.8 -3.8 4.7 99 0.0 NNW 39 76 21 41 988.7 - 20.6
29/02:00pm 4.3 -5.7 4.2 99 0.0 NNW 46 106 25 57 989.8 991.4 16.6
29/01:30pm 3.9 -6.6 3.8 99 0.0 NNW 48 95 26 51 990.1 - 13.0
29/01:22pm 3.8 -6.3 3.7 99 0.0 NW 46 95 25 51 989.9 - 12.0
29/01:19pm 3.7 -4.0 3.6 99 0.0 NNW 33 70 18 38 990.3 - 11.8
29/01:16pm 3.6 -9.0 3.5 99 0.0 NW 59 109 32 59 990.1 - 11.8
29/01:00pm 3.5 -5.3 3.4 99 0.0 NW 39 85 21 46 991.0 992.7 11.6
29/12:30pm 3.2 -6.5 3.1 99 0.0 NW 43 83 23 45 992.0 - 11.6
29/12:28pm 3.2 -8.9 3.1 99 0.0 WNW 56 83 30 45 991.4 - 11.6
29/12:12pm 3.1 -4.7 3.0 99 0.0 NW 33 70 18 38 991.7 - 11.4
29/12:10pm 3.1 -9.6 3.0 99 0.0 WNW 59 104 32 56 991.4 - 11.4
29/12:00pm 3.0 -6.7 2.9 99 0.0 NNW 43 82 23 44 991.8 993.5 11.4
29/11:56am 2.8 -5.8 2.7 99 0.0 NNW 37 82 20 44 991.9 - 11.2
29/11:55am 2.7 -4.2 2.6 99 0.0 N 28 57 15 31 991.7 - 11.2
29/11:45am 2.5 -9.4 2.4 99 0.0 NW 54 106 29 57 991.7 - 11.2
29/11:30am 2.7 -7.2 2.6 99 0.0 NW 44 82 24 44 992.1 - 11.2
29/11:28am 2.8 -7.1 2.7 99 0.0 NW 44 69 24 37 992.5 - 11.2
29/11:26am 2.6 -12.1 2.5 99 0.0 WNW 69 106 37 57 992.0 - 11.2
29/11:24am 2.8 -5.8 2.7 99 0.0 NW 37 89 20 48 992.7 - 11.2
29/11:22am 2.7 -5.1 2.6 99 0.0 WNW 33 57 18 31 992.6 - 11.0
29/11:21am 2.9 -3.2 2.8 99 0.0 WNW 24 57 13 31 992.9 - 11.0
29/11:05am 2.6 -9.8 2.5 99 0.0 WNW 57 96 31 52 991.9 - 9.4
29/11:00am 2.7 -14.4 2.6 99 0.0 WNW 82 109 44 59 991.6 993.2 9.0
29/10:58am 2.8 -14.5 2.7 99 0.0 WNW 83 109 45 59 992.4 - 9.0
29/10:46am 3.1 -8.3 3.0 99 0.0 WNW 52 98 28 53 992.5 - 8.0
29/10:42am 3.8 -6.3 3.7 99 0.0 WNW 46 70 25 38 993.0 - 5.8
29/10:30am 3.8 -5.0 3.7 99 0.0 NNW 39 76 21 41 992.4 - 2.8
29/10:00am 3.9 -5.8 3.8 99 0.0 NW 44 80 24 43 992.5 994.2 1.8
29/09:48am 3.9 -4.9 3.8 99 0.0 NW 39 89 21 48 992.0 - 1.4
29/09:42am 4.0 -3.6 3.9 99 0.0 NW 33 69 18 37 992.6 - 1.4
29/09:34am 4.0 -8.5 3.9 99 0.0 WNW 59 91 32 49 992.5 - 1.2
29/09:30am 3.9 -4.1 3.8 99 0.0 NNW 35 72 19 39 992.6 - 1.2
29/09:14am 3.9 -6.2 3.8 99 0.0 NW 46 83 25 45 993.2 - 1.0
29/09:05am 3.8 -10.9 3.7 99 0.0 NW 70 96 38 52 992.5 - 0.8
29/09:00am 4.0 -5.1 3.9 99 0.0 NW 41 82 22 44 992.6 994.3 28.8
29/08:47am 4.3 -3.1 4.2 99 0.0 NW 32 85 17 46 993.2 - 28.6
29/08:33am 4.5 -2.1 4.4 99 0.0 NW 28 67 15 36 993.5 - 28.4
29/08:30am 4.6 -0.8 4.5 99 0.0 NNW 22 48 12 26 993.4 - 27.8
29/08:28am 4.5 -5.1 4.4 99 0.0 WNW 44 82 24 44 993.1 - 27.8
29/08:24am 4.5 -4.1 4.4 99 0.0 WNW 39 59 21 32 993.4 - 26.6
29/08:17am 4.5 -9.5 4.4 99 0.0 NW 67 91 36 49 992.4 - 24.0
29/08:10am 4.7 -4.7 4.6 99 0.0 NW 43 95 23 51 992.4 - 22.4
29/08:08am 4.7 -3.2 4.6 99 0.0 NW 35 69 19 37 992.7 - 22.4
29/08:06am 4.6 -9.0 4.5 99 0.0 NW 65 104 35 56 992.2 - 22.4
29/08:05am 4.7 -3.5 4.6 99 0.0 NNW 37 96 20 52 992.7 - 22.4
29/08:02am 4.7 -2.2 4.6 99 0.0 NNW 30 67 16 36 992.5 - 22.2
29/08:00am 4.7 -1.1 4.6 99 0.0 NNW 24 63 13 34 992.7 994.4 22.0
29/07:40am 4.5 -5.9 4.4 99 0.0 NW 48 95 26 51 992.7 - 20.8
29/07:38am 4.5 -4.1 4.4 99 0.0 NW 39 72 21 39 993.2 - 20.8
29/07:30am 4.5 -8.7 4.4 99 0.0 WNW 63 104 34 56 993.0 - 20.8
29/07:04am 4.8 -9.5 4.7 99 0.0 NW 69 106 37 57 992.9 - 20.8
29/07:03am 5.0 -2.8 4.9 99 0.0 NW 35 106 19 57 992.7 - 20.8
29/07:01am 5.0 -2.2 4.9 99 0.0 NNW 32 78 17 42 993.1 - 20.8
29/07:00am 5.1 -1.3 5.0 99 0.0 NNW 28 57 15 31 993.0 994.7 20.6
29/06:52am 4.7 -2.2 4.6 99 0.0 NNW 30 57 16 31 992.8 - 20.0
29/06:50am 4.6 -5.0 4.5 99 0.0 NW 44 76 24 41 992.7 - 19.6
29/06:47am 4.6 -11.4 4.5 99 0.0 WNW 78 111 42 60 992.1 - 19.0
29/06:30am 5.0 -8.1 4.9 99 0.0 NNW 63 96 34 52 991.9 - 17.2
29/06:00am 4.9 -6.5 4.8 99 0.0 NNW 54 83 29 45 993.1 994.8 16.4
29/05:53am 5.0 -4.9 4.9 99 0.0 NNW 46 78 25 42 993.2 - 16.4
29/05:52am 5.0 -4.5 4.9 99 0.0 NNW 44 61 24 33 993.5 - 16.4
29/05:30am 5.2 -8.3 5.1 99 0.0 NNW 65 115 35 62 992.9 - 15.4
29/05:25am 5.2 -8.6 5.1 99 0.0 NNW 67 109 36 59 992.5 - 15.4
29/05:03am 5.0 -8.9 4.9 99 0.0 NNW 67 89 36 48 992.8 - 15.0
29/05:00am 4.9 -5.4 4.8 99 0.0 NNW 48 76 26 41 993.0 994.7 15.0
29/04:36am 4.8 -5.1 4.7 99 0.0 NNW 46 96 25 52 994.4 - 13.8
29/04:30am 4.6 -5.0 4.5 99 0.0 NNW 44 74 24 40 994.7 - 13.4
29/04:00am 4.4 -6.4 4.3 99 0.0 NNW 50 83 27 45 995.3 997.0 12.4
29/03:30am 4.5 -6.6 4.4 99 0.0 NNW 52 78 28 42 995.9 - 10.6
29/03:20am 4.5 -4.1 4.4 99 0.0 NNW 39 76 21 41 995.7 - 10.2
29/03:01am 4.3 -3.6 4.2 99 0.0 NNW 35 56 19 30 996.9 - 9.8
29/03:00am 4.3 -4.0 4.2 99 0.0 NNW 37 56 20 30 996.9 998.7 9.8
29/02:43am 4.2 -6.2 4.1 99 0.0 NNW 48 82 26 44 997.3 - 9.8
29/02:30am 4.2 -2.8 4.1 99 0.0 N 30 54 16 29 997.8 - 8.6
29/02:00am 4.2 -5.5 4.1 99 0.0 NNW 44 78 24 42 998.4 1000.2 7.8
29/01:30am 4.0 -5.7 3.9 99 0.0 NNW 44 74 24 40 998.9 - 7.6
29/01:00am 4.2 -6.2 4.1 99 0.0 NNW 48 78 26 42 999.2 1001.0 7.4
29/12:30am 4.1 -3.5 4.0 99 0.0 NNW 33 63 18 34 999.8 - 5.4
29/12:00am 4.1 -3.5 4.0 99 0.0 NNW 33 52 18 28 1000.3 1002.2 4.6
 
Date/Time
EST
Temp
°C
App
Temp
°C
Dew
Point
Rel
Hum
%
Delta-T
°C
Wind Press
QNH
hPa
Press
MSL
hPa
Rain
since 9 am
mm
Dir
 
Spd
km/h
Gust
km/h
Spd
kts
Gust
kts
28/11:30pm 4.2 -4.9 4.1 99 0.0 NNW 41 65 22 35 1000.6 - 4.2
28/11:18pm 4.2 -4.9 4.1 99 0.0 NNW 41 78 22 42 1000.9 - 4.0
28/11:00pm 4.1 -3.3 4.0 99 0.0 NNW 32 52 17 28 1001.5 1003.4 4.0
28/10:30pm 4.1 -5.4 4.0 99 0.0 NNW 43 63 23 34 1001.3 - 3.8
28/10:03pm 3.9 -3.2 3.8 99 0.0 NNW 30 50 16 27 1001.6 - 3.8
28/10:00pm 3.9 -2.8 3.8 99 0.0 NNW 28 44 15 24 1001.6 1003.6 3.6
28/09:32pm 4.0 -3.0 3.9 99 0.0 NNW 30 48 16 26 1002.5 - 3.4
28/09:30pm 3.9 -3.2 3.8 99 0.0 NNW 30 48 16 26 1002.5 - 3.2
28/09:00pm 3.7 -3.8 3.6 99 0.0 NNW 32 54 17 29 1002.8 1004.8 3.2
28/08:30pm 3.7 -3.4 3.6 99 0.0 NNW 30 48 16 26 1002.5 - 1.8
28/08:00pm 3.4 -4.1 3.3 99 0.0 NNW 32 59 17 32 1002.7 1004.7 1.2
28/07:30pm 3.1 -5.8 3.0 99 0.0 NNW 39 61 21 33 1003.2 - 1.0
28/07:00pm 3.1 -5.0 3.0 99 0.0 NNW 35 56 19 30 1003.2 1005.2 1.0
28/06:30pm 3.2 -6.1 3.1 99 0.0 NNW 41 67 22 36 1003.0 - 1.0
28/06:00pm 3.5 -4.2 3.4 99 0.0 NNW 33 57 18 31 1002.1 1004.0 0.6
28/05:30pm 3.5 -5.3 3.4 99 0.0 NNW 39 61 21 33 1002.3 - 0.4

Other Formats:

Comma delimited format used in spreadsheet applications
http://www.bom.gov.au/fwo/IDT60801/IDT60801.95952.axf

JavaScript Object Notation format (JSON) in row-major order
http://www.bom.gov.au/fwo/IDT60801/IDT60801.95952.json